createdAt,value
2023-04-18T00:01:52.571Z,102256.00
2023-04-18T00:04:19.788Z,102244.00
2023-04-18T00:06:47.242Z,102245.00
2023-04-18T00:09:14.023Z,102244.00
2023-04-18T00:11:40.860Z,102250.00
2023-04-18T00:14:08.501Z,102255.00
2023-04-18T00:16:36.169Z,102253.00
2023-04-18T00:19:04.484Z,102252.00
2023-04-18T00:21:31.952Z,102258.00
2023-04-18T00:23:58.875Z,102245.00
2023-04-18T00:26:27.597Z,102242.00
2023-04-18T00:28:54.377Z,102247.00
2023-04-18T00:31:21.216Z,102242.00
2023-04-18T00:33:48.024Z,102257.00
2023-04-18T00:36:14.919Z,102247.00
2023-04-18T00:38:41.738Z,102249.00
2023-04-18T00:41:08.467Z,102253.00
2023-04-18T00:43:35.290Z,102253.00
2023-04-18T00:46:02.136Z,102259.00
2023-04-18T00:48:30.711Z,102260.00
2023-04-18T00:50:57.908Z,102255.00
2023-04-18T00:53:25.006Z,102253.00
2023-04-18T00:55:52.356Z,102253.00
2023-04-18T00:58:19.200Z,102260.00
2023-04-18T01:00:46.216Z,102249.00
2023-04-18T01:03:14.311Z,102249.00
2023-04-18T01:05:41.454Z,102262.00
2023-04-18T01:08:08.348Z,102254.00
2023-04-18T01:10:36.298Z,102259.00
2023-04-18T01:13:17.758Z,102250.00
2023-04-18T01:15:47.648Z,102254.00
2023-04-18T01:18:17.549Z,102261.00
2023-04-18T01:20:50.021Z,102253.00
2023-04-18T01:23:19.172Z,102252.00
2023-04-18T01:25:49.266Z,102251.00
2023-04-18T01:28:16.438Z,102246.00
2023-04-18T01:30:43.241Z,102251.00
2023-04-18T01:33:10.080Z,102252.00
2023-04-18T01:35:36.832Z,102256.00
2023-04-18T01:38:03.653Z,102256.00
2023-04-18T01:40:30.434Z,102250.00
2023-04-18T01:42:57.593Z,102254.00
2023-04-18T01:45:24.676Z,102249.00
2023-04-18T01:47:51.526Z,102258.00
2023-04-18T01:50:18.396Z,102251.00
2023-04-18T01:52:45.481Z,102248.00
2023-04-18T01:55:12.315Z,102247.00
2023-04-18T01:57:39.278Z,102255.00
2023-04-18T02:00:07.821Z,102242.00
2023-04-18T02:02:34.758Z,102247.00
2023-04-18T02:05:01.816Z,102245.00
2023-04-18T02:07:28.590Z,102243.00
2023-04-18T02:09:55.384Z,102242.00
2023-04-18T02:12:22.122Z,102243.00
2023-04-18T02:14:53.411Z,102246.00
2023-04-18T02:17:23.602Z,102234.00
2023-04-18T02:19:53.963Z,102238.00
2023-04-18T02:22:20.739Z,102240.00
2023-04-18T02:24:47.477Z,102246.00
2023-04-18T02:27:14.280Z,102241.00
2023-04-18T02:29:41.132Z,102235.00
2023-04-18T02:32:08.234Z,102234.00
2023-04-18T02:34:36.413Z,102239.00
2023-04-18T02:37:03.567Z,102234.00
2023-04-18T02:39:30.641Z,102237.00
2023-04-18T02:41:58.157Z,102240.00
2023-04-18T02:44:24.937Z,102246.00
2023-04-18T02:46:51.656Z,102252.00
2023-04-18T02:49:18.430Z,102245.00
2023-04-18T02:51:45.175Z,102256.00
2023-04-18T02:54:12.106Z,102254.00
2023-04-18T02:56:39.868Z,102256.00
2023-04-18T02:59:07.338Z,102260.00
2023-04-18T03:01:34.318Z,102257.00
2023-04-18T03:04:01.112Z,102256.00
2023-04-18T03:06:27.844Z,102260.00
2023-04-18T03:08:55.647Z,102263.00
2023-04-18T03:11:22.517Z,102253.00
2023-04-18T03:13:49.326Z,102271.00
2023-04-18T03:16:16.777Z,102257.00
2023-04-18T03:18:43.604Z,102260.00
2023-04-18T03:21:11.381Z,102254.00
2023-04-18T03:23:38.407Z,102262.00
2023-04-18T03:26:08.079Z,102265.00
2023-04-18T03:28:34.985Z,102260.00
2023-04-18T03:31:01.841Z,102253.00
2023-04-18T03:33:28.870Z,102255.00
2023-04-18T03:35:55.607Z,102260.00
2023-04-18T03:38:22.439Z,102261.00
2023-04-18T03:40:49.291Z,102256.00
2023-04-18T03:43:16.130Z,102268.00
2023-04-18T03:45:44.078Z,102266.00
2023-04-18T03:48:10.869Z,102270.00
2023-04-18T03:50:37.592Z,102261.00
2023-04-18T03:53:04.340Z,102272.00
2023-04-18T03:55:31.408Z,102264.00
2023-04-18T03:57:59.170Z,102269.00
2023-04-18T04:00:26.733Z,102269.00
2023-04-18T04:02:53.641Z,102264.00
2023-04-18T04:05:20.661Z,102266.00
2023-04-18T04:07:47.578Z,102274.00
2023-04-18T04:10:14.397Z,102261.00
2023-04-18T04:12:41.119Z,102277.00
2023-04-18T04:15:08.473Z,102270.00
2023-04-18T04:17:35.223Z,102274.00
2023-04-18T04:20:02.344Z,102275.00
2023-04-18T04:22:29.114Z,102282.00
2023-04-18T04:24:57.818Z,102285.00
2023-04-18T04:27:25.100Z,102272.00
2023-04-18T04:29:52.327Z,102280.00
2023-04-18T04:32:20.377Z,102271.00
2023-04-18T04:34:47.165Z,102287.00
2023-04-18T04:37:19.776Z,102293.00
2023-04-18T04:39:46.524Z,102285.00
2023-04-18T04:42:13.403Z,102292.00
2023-04-18T04:44:41.687Z,102299.00
2023-04-18T04:47:08.607Z,102284.00
2023-04-18T04:49:35.520Z,102284.00
2023-04-18T04:52:03.017Z,102295.00
2023-04-18T04:54:30.092Z,102291.00
2023-04-18T04:56:56.925Z,102288.00
2023-04-18T04:59:23.938Z,102294.00
2023-04-18T05:01:51.218Z,102298.00
2023-04-18T05:04:18.504Z,102303.00
2023-04-18T05:06:46.122Z,102305.00
2023-04-18T05:09:13.430Z,102297.00
2023-04-18T05:11:40.279Z,102307.00
2023-04-18T05:14:07.719Z,102295.00
2023-04-18T05:16:34.700Z,102301.00
2023-04-18T05:19:01.596Z,102302.00
2023-04-18T05:21:28.874Z,102304.00
2023-04-18T05:23:58.279Z,102314.00
2023-04-18T05:26:25.203Z,102307.00
2023-04-18T05:28:52.030Z,102308.00
2023-04-18T05:31:18.817Z,102305.00
2023-04-18T05:33:45.602Z,102310.00
2023-04-18T05:36:12.393Z,102312.00
2023-04-18T05:38:39.118Z,102308.00
2023-04-18T05:41:05.876Z,102313.00
2023-04-18T05:43:32.573Z,102308.00
2023-04-18T05:45:59.332Z,102307.00
2023-04-18T05:48:27.484Z,102307.00
2023-04-18T05:50:54.243Z,102321.00
2023-04-18T05:53:21.303Z,102314.00
2023-04-18T05:55:48.828Z,102307.00
2023-04-18T05:58:16.013Z,102301.00
2023-04-18T06:00:43.583Z,102303.00
2023-04-18T06:03:11.363Z,102308.00
2023-04-18T06:05:38.632Z,102314.00
2023-04-18T06:08:06.447Z,102314.00
2023-04-18T06:10:33.651Z,102323.00
2023-04-18T06:13:00.360Z,102315.00
2023-04-18T06:15:27.153Z,102312.00
2023-04-18T06:17:53.945Z,102319.00
2023-04-18T06:20:20.759Z,102328.00
2023-04-18T06:22:47.525Z,102323.00
2023-04-18T06:25:14.501Z,102321.00
2023-04-18T06:27:41.303Z,102326.00
2023-04-18T06:30:08.853Z,102324.00
2023-04-18T06:32:35.782Z,102327.00
2023-04-18T06:35:02.606Z,102326.00
2023-04-18T06:37:29.497Z,102327.00
2023-04-18T06:39:56.223Z,102326.00
2023-04-18T06:42:23.049Z,102327.00
2023-04-18T06:44:50.253Z,102320.00
2023-04-18T06:47:17.089Z,102339.00
2023-04-18T06:49:43.816Z,102330.00
2023-04-18T06:52:10.631Z,102336.00
2023-04-18T06:54:37.389Z,102345.00
2023-04-18T06:57:04.262Z,102345.00
2023-04-18T06:59:31.104Z,102341.00
2023-04-18T07:01:57.846Z,102333.00
2023-04-18T07:04:24.826Z,102341.00
2023-04-18T07:06:52.020Z,102346.00
2023-04-18T07:09:19.033Z,102348.00
2023-04-18T07:11:45.825Z,102347.00
2023-04-18T07:14:12.768Z,102334.00
2023-04-18T07:16:39.839Z,102340.00
2023-04-18T07:19:06.806Z,102338.00
2023-04-18T07:21:33.605Z,102338.00
2023-04-18T07:24:00.447Z,102328.00
2023-04-18T07:26:27.647Z,102355.00
2023-04-18T07:28:54.541Z,102346.00
2023-04-18T07:31:21.325Z,102342.00
2023-04-18T07:33:48.085Z,102347.00
2023-04-18T07:36:14.865Z,102339.00
2023-04-18T07:38:41.662Z,102350.00
2023-04-18T07:41:08.503Z,102340.00
2023-04-18T07:43:36.451Z,102351.00
2023-04-18T07:46:03.249Z,102347.00
2023-04-18T07:48:30.007Z,102347.00
2023-04-18T07:50:56.792Z,102342.00
2023-04-18T07:53:23.621Z,102345.00
2023-04-18T07:55:50.658Z,102349.00
2023-04-18T07:58:17.803Z,102341.00
2023-04-18T08:00:44.937Z,102347.00
2023-04-18T08:03:13.259Z,102344.00
2023-04-18T08:05:42.486Z,102342.00
2023-04-18T08:08:11.833Z,102346.00
2023-04-18T08:10:38.863Z,102344.00
2023-04-18T08:13:08.083Z,102343.00
2023-04-18T08:15:35.483Z,102351.00
2023-04-18T08:18:02.429Z,102348.00
2023-04-18T08:20:29.302Z,102359.00
2023-04-18T08:25:25.742Z,102350.00
2023-04-18T08:27:52.591Z,102358.00
2023-04-18T08:30:19.501Z,102355.00
2023-04-18T08:32:46.384Z,102357.00
2023-04-18T08:35:13.262Z,102356.00
2023-04-18T08:37:40.096Z,102361.00
2023-04-18T08:40:07.842Z,102353.00
2023-04-18T08:42:36.013Z,102361.00
2023-04-18T08:45:04.190Z,102364.00
2023-04-18T08:47:31.883Z,102364.00
2023-04-18T08:49:58.749Z,102354.00
2023-04-18T08:52:30.685Z,102360.00
2023-04-18T08:54:57.448Z,102356.00
2023-04-18T08:57:27.339Z,102358.00
2023-04-18T08:59:55.361Z,102359.00
2023-04-18T09:02:35.021Z,102356.00
2023-04-18T09:05:14.261Z,102353.00
2023-04-18T09:07:42.477Z,102357.00
2023-04-18T09:10:10.201Z,102353.00
2023-04-18T09:12:52.370Z,102365.00
2023-04-18T09:15:23.783Z,102356.00
2023-04-18T09:17:56.036Z,102362.00
2023-04-18T09:20:30.782Z,102354.00
2023-04-18T09:23:00.833Z,102354.00
2023-04-18T09:25:45.290Z,102352.00
2023-04-18T09:28:27.033Z,102356.00
2023-04-18T09:30:56.188Z,102364.00
2023-04-18T09:33:29.609Z,102356.00
2023-04-18T09:36:16.184Z,102348.00
2023-04-18T09:38:42.993Z,102353.00
2023-04-18T09:41:12.170Z,102353.00
2023-04-18T09:43:40.978Z,102358.00
2023-04-18T09:46:08.944Z,102360.00
2023-04-18T09:48:36.430Z,102364.00
2023-04-18T09:51:09.950Z,102361.00
2023-04-18T09:53:44.750Z,102363.00
2023-04-18T09:56:32.234Z,102359.00
2023-04-18T09:59:32.909Z,102357.00
2023-04-18T10:02:02.386Z,102354.00
2023-04-18T10:04:31.322Z,102356.00
2023-04-18T10:06:58.775Z,102349.00
2023-04-18T10:09:25.715Z,102347.00
2023-04-18T10:11:54.352Z,102359.00
2023-04-18T10:14:22.752Z,102354.00
2023-04-18T10:16:50.583Z,102354.00
2023-04-18T10:19:26.331Z,102350.00
2023-04-18T10:21:59.061Z,102357.00
2023-04-18T10:24:53.637Z,102341.00
2023-04-18T10:27:49.606Z,102344.00
2023-04-18T10:30:17.632Z,102340.00
2023-04-18T10:32:46.514Z,102349.00
2023-04-18T10:35:13.372Z,102341.00
2023-04-18T10:37:58.850Z,102350.00
2023-04-18T10:40:35.235Z,102359.00
2023-04-18T10:43:02.138Z,102351.00
2023-04-18T10:45:32.494Z,102355.00
2023-04-18T10:48:30.240Z,102351.00
2023-04-18T10:51:21.906Z,102353.00
2023-04-18T10:53:53.954Z,102351.00
2023-04-18T10:56:20.823Z,102350.00
2023-04-18T10:58:52.990Z,102351.00
2023-04-18T11:01:32.203Z,102340.00
2023-04-18T11:04:01.001Z,102341.00
2023-04-18T11:06:28.588Z,102343.00
2023-04-18T11:09:13.397Z,102346.00
2023-04-18T11:11:41.703Z,102348.00
2023-04-18T11:14:08.592Z,102335.00
2023-04-18T11:16:35.973Z,102354.00
2023-04-18T11:19:20.949Z,102346.00
2023-04-18T11:21:47.781Z,102339.00
2023-04-18T11:24:24.777Z,102342.00
2023-04-18T11:26:55.943Z,102342.00
2023-04-18T11:29:23.009Z,102339.00
2023-04-18T11:31:56.679Z,102338.00
2023-04-18T11:34:31.024Z,102339.00
2023-04-18T11:36:58.385Z,102338.00
2023-04-18T11:39:25.272Z,102335.00
2023-04-18T11:41:52.382Z,102328.00
2023-04-18T11:44:25.093Z,102334.00
2023-04-18T11:46:53.071Z,102323.00
2023-04-18T11:49:31.960Z,102329.00
2023-04-18T11:52:01.553Z,102328.00
2023-04-18T11:54:43.461Z,102324.00
2023-04-18T11:57:28.493Z,102331.00
2023-04-18T12:00:00.844Z,102330.00
2023-04-18T12:02:40.654Z,102326.00
2023-04-18T12:05:08.319Z,102339.00
2023-04-18T12:07:39.002Z,102333.00
2023-04-18T12:10:29.605Z,102332.00
2023-04-18T12:12:58.932Z,102336.00
2023-04-18T12:15:28.655Z,102321.00
2023-04-18T12:18:01.931Z,102329.00
2023-04-18T12:20:50.087Z,102333.00
2023-04-18T12:23:42.440Z,102321.00
2023-04-18T12:26:15.979Z,102326.00
2023-04-18T12:28:46.485Z,102320.00
2023-04-18T12:31:13.306Z,102319.00
2023-04-18T12:33:40.104Z,102327.00
2023-04-18T12:36:08.618Z,102317.00
2023-04-18T12:38:36.327Z,102316.00
2023-04-18T12:41:03.128Z,102324.00
2023-04-18T12:43:29.987Z,102331.00
2023-04-18T12:45:56.770Z,102319.00
2023-04-18T12:48:23.577Z,102321.00
2023-04-18T12:50:50.372Z,102322.00
2023-04-18T12:53:17.142Z,102318.00
2023-04-18T12:55:44.027Z,102323.00
2023-04-18T12:58:10.799Z,102321.00
2023-04-18T13:00:37.577Z,102326.00
2023-04-18T13:03:05.047Z,102316.00
2023-04-18T13:05:33.999Z,102314.00
2023-04-18T13:10:31.422Z,102308.00
2023-04-18T13:12:58.276Z,102314.00
2023-04-18T13:15:26.081Z,102314.00
2023-04-18T13:17:53.156Z,102306.00
2023-04-18T13:20:20.061Z,102306.00
2023-04-18T13:22:46.836Z,102310.00
2023-04-18T13:25:13.808Z,102296.00
2023-04-18T13:27:42.049Z,102301.00
2023-04-18T13:30:11.725Z,102299.00
2023-04-18T13:32:40.294Z,102297.00
2023-04-18T13:35:11.065Z,102301.00
2023-04-18T13:37:38.665Z,102288.00
2023-04-18T13:40:06.818Z,102290.00
2023-04-18T13:42:35.716Z,102290.00
2023-04-18T13:45:03.200Z,102295.00
2023-04-18T13:47:30.350Z,102283.00
2023-04-18T13:49:57.825Z,102300.00
2023-04-18T13:52:25.538Z,102286.00
2023-04-18T13:54:52.269Z,102284.00
2023-04-18T13:57:19.078Z,102279.00
2023-04-18T13:59:45.793Z,102286.00
2023-04-18T14:02:12.659Z,102275.00
2023-04-18T14:04:39.953Z,102289.00
2023-04-18T14:07:07.946Z,102282.00
2023-04-18T14:09:34.796Z,102280.00
2023-04-18T14:12:02.114Z,102290.00
2023-04-18T14:14:29.164Z,102280.00
2023-04-18T14:16:56.050Z,102281.00
2023-04-18T14:19:22.893Z,102283.00
2023-04-18T14:21:49.759Z,102286.00
2023-04-18T14:24:16.683Z,102278.00
2023-04-18T14:26:43.991Z,102282.00
2023-04-18T14:29:11.120Z,102278.00
2023-04-18T14:31:38.128Z,102277.00
2023-04-18T14:34:05.618Z,102265.00
2023-04-18T14:36:32.675Z,102265.00
2023-04-18T14:38:59.463Z,102270.00
2023-04-18T14:41:26.864Z,102259.00
2023-04-18T14:43:53.733Z,102260.00
2023-04-18T14:46:21.401Z,102262.00
2023-04-18T14:48:48.456Z,102262.00
2023-04-18T14:51:16.775Z,102250.00
2023-04-18T14:53:44.723Z,102252.00
2023-04-18T14:56:11.701Z,102261.00
2023-04-18T14:58:38.561Z,102253.00
2023-04-18T15:01:05.773Z,102259.00
2023-04-18T15:03:33.168Z,102255.00
2023-04-18T15:06:00.425Z,102252.00
2023-04-18T15:08:27.529Z,102257.00
2023-04-18T15:10:54.334Z,102243.00
2023-04-18T15:13:21.182Z,102258.00
2023-04-18T15:15:53.039Z,102258.00
2023-04-18T15:18:20.104Z,102261.00
2023-04-18T15:20:47.433Z,102248.00
2023-04-18T15:23:15.322Z,102246.00
2023-04-18T15:25:43.596Z,102251.00
2023-04-18T15:28:10.412Z,102253.00
2023-04-18T15:30:38.427Z,102247.00
2023-04-18T15:33:05.410Z,102240.00
2023-04-18T15:35:32.160Z,102242.00
2023-04-18T15:37:58.913Z,102251.00
2023-04-18T15:40:26.183Z,102245.00
2023-04-18T15:42:54.270Z,102254.00
2023-04-18T15:45:21.853Z,102253.00
2023-04-18T15:47:48.765Z,102244.00
2023-04-18T15:50:16.346Z,102248.00
2023-04-18T15:52:44.246Z,102246.00
2023-04-18T15:55:13.727Z,102242.00
2023-04-18T15:57:41.921Z,102255.00
2023-04-18T16:00:19.704Z,102252.00
2023-04-18T16:02:47.289Z,102254.00
2023-04-18T16:05:15.131Z,102247.00
2023-04-18T16:07:42.904Z,102244.00
2023-04-18T16:10:11.238Z,102257.00
2023-04-18T16:12:39.511Z,102249.00
2023-04-18T16:15:09.396Z,102254.00
2023-04-18T16:17:37.606Z,102253.00
2023-04-18T16:20:09.178Z,102245.00
2023-04-18T16:22:37.432Z,102254.00
2023-04-18T16:25:04.851Z,102250.00
2023-04-18T16:27:32.531Z,102250.00
2023-04-18T16:29:59.724Z,102251.00
2023-04-18T16:32:26.556Z,102254.00
2023-04-18T16:34:53.351Z,102248.00
2023-04-18T16:37:20.455Z,102252.00
2023-04-18T16:39:47.376Z,102250.00
2023-04-18T16:42:15.709Z,102253.00
2023-04-18T16:44:44.665Z,102250.00
2023-04-18T16:47:11.427Z,102262.00
2023-04-18T16:49:38.191Z,102256.00
2023-04-18T16:52:05.027Z,102262.00
2023-04-18T16:54:31.746Z,102258.00
2023-04-18T16:56:59.117Z,102259.00
2023-04-18T16:59:26.006Z,102261.00
2023-04-18T17:01:52.870Z,102254.00
2023-04-18T17:04:19.742Z,102258.00
2023-04-18T17:06:46.602Z,102265.00
2023-04-18T17:09:14.530Z,102271.00
2023-04-18T17:11:41.915Z,102266.00
2023-04-18T17:14:08.967Z,102261.00
2023-04-18T17:16:39.413Z,102263.00
2023-04-18T17:19:06.722Z,102281.00
2023-04-18T17:21:35.333Z,102274.00
2023-04-18T17:24:07.069Z,102274.00
2023-04-18T17:26:35.686Z,102278.00
2023-04-18T17:29:04.251Z,102274.00
2023-04-18T17:31:34.644Z,102287.00
2023-04-18T17:34:01.499Z,102281.00
2023-04-18T17:36:28.245Z,102286.00
2023-04-18T17:38:55.473Z,102275.00
2023-04-18T17:41:22.549Z,102279.00
2023-04-18T17:43:50.967Z,102291.00
2023-04-18T17:46:17.992Z,102280.00
2023-04-18T17:48:44.795Z,102279.00
2023-04-18T17:51:11.531Z,102281.00
2023-04-18T17:53:38.284Z,102285.00
2023-04-18T17:56:05.331Z,102296.00
2023-04-18T17:58:32.090Z,102298.00
2023-04-18T18:01:00.026Z,102289.00
2023-04-18T18:03:27.091Z,102298.00
2023-04-18T18:05:56.935Z,102307.00
2023-04-18T18:08:24.291Z,102302.00
2023-04-18T18:10:51.014Z,102298.00
2023-04-18T18:13:17.793Z,102322.00
2023-04-18T18:15:44.532Z,102307.00
2023-04-18T18:18:11.558Z,102309.00
2023-04-18T18:20:42.018Z,102328.00
2023-04-18T18:23:08.931Z,102312.00
2023-04-18T18:25:37.672Z,102307.00
2023-04-18T18:28:04.685Z,102305.00
2023-04-18T18:30:31.468Z,102334.00
2023-04-18T18:32:58.289Z,102311.00
2023-04-18T18:35:25.163Z,102318.00
2023-04-18T18:37:52.017Z,102324.00
2023-04-18T18:40:18.903Z,102319.00
2023-04-18T18:42:46.035Z,102326.00
2023-04-18T18:45:12.835Z,102324.00
2023-04-18T18:47:40.214Z,102325.00
2023-04-18T18:50:07.659Z,102324.00
2023-04-18T18:52:34.537Z,102327.00
2023-04-18T18:55:01.643Z,102327.00
2023-04-18T18:57:28.442Z,102329.00
2023-04-18T18:59:55.976Z,102332.00
2023-04-18T19:02:23.020Z,102335.00
2023-04-18T19:04:50.203Z,102337.00
2023-04-18T19:07:17.189Z,102350.00
2023-04-18T19:09:43.994Z,102343.00
2023-04-18T19:12:10.840Z,102343.00
2023-04-18T19:14:37.637Z,102339.00
2023-04-18T19:17:04.898Z,102354.00
2023-04-18T19:19:31.617Z,102353.00
2023-04-18T19:21:58.525Z,102347.00
2023-04-18T19:24:25.462Z,102349.00
2023-04-18T19:26:52.212Z,102341.00
2023-04-18T19:29:19.148Z,102343.00
2023-04-18T19:31:45.984Z,102352.00
2023-04-18T19:34:13.560Z,102347.00
2023-04-18T19:36:40.501Z,102347.00
2023-04-18T19:39:08.107Z,102348.00
2023-04-18T19:41:37.840Z,102347.00
2023-04-18T19:44:04.757Z,102357.00
2023-04-18T19:46:31.584Z,102357.00
2023-04-18T19:48:58.434Z,102341.00
2023-04-18T19:51:27.829Z,102345.00
2023-04-18T19:53:55.624Z,102348.00
2023-04-18T19:56:22.602Z,102338.00
2023-04-18T19:58:49.417Z,102344.00
2023-04-18T20:01:19.095Z,102347.00
2023-04-18T20:03:47.027Z,102347.00
2023-04-18T20:06:14.146Z,102354.00
2023-04-18T20:08:41.647Z,102349.00
2023-04-18T20:11:10.819Z,102352.00
2023-04-18T20:13:38.951Z,102348.00
2023-04-18T20:16:07.637Z,102347.00
2023-04-18T20:18:37.686Z,102347.00
2023-04-18T20:21:07.378Z,102345.00
2023-04-18T20:23:38.139Z,102344.00
2023-04-18T20:26:05.137Z,102342.00
2023-04-18T20:28:32.181Z,102348.00
2023-04-18T20:30:59.324Z,102346.00
2023-04-18T20:33:26.245Z,102344.00
2023-04-18T20:35:54.626Z,102342.00
2023-04-18T20:38:25.772Z,102344.00
2023-04-18T20:40:53.251Z,102337.00
2023-04-18T20:43:20.656Z,102342.00
2023-04-18T20:45:51.391Z,102331.00
2023-04-18T20:48:18.971Z,102344.00
2023-04-18T20:50:51.223Z,102341.00
2023-04-18T20:53:25.033Z,102348.00
2023-04-18T20:55:51.876Z,102343.00
2023-04-18T20:58:18.678Z,102340.00
2023-04-18T21:00:45.588Z,102337.00
2023-04-18T21:03:16.630Z,102339.00
2023-04-18T21:05:45.051Z,102336.00
2023-04-18T21:08:12.377Z,102340.00
2023-04-18T21:10:39.742Z,102346.00
2023-04-18T21:13:06.525Z,102336.00
2023-04-18T21:15:34.876Z,102346.00
2023-04-18T21:18:02.200Z,102348.00
2023-04-18T21:20:29.219Z,102344.00
2023-04-18T21:22:55.971Z,102336.00
2023-04-18T21:25:22.931Z,102354.00
2023-04-18T21:27:50.687Z,102350.00
2023-04-18T21:30:17.772Z,102336.00
2023-04-18T21:32:45.982Z,102329.00
2023-04-18T21:35:13.374Z,102337.00
2023-04-18T21:37:40.127Z,102339.00
2023-04-18T21:40:07.824Z,102344.00
2023-04-18T21:42:35.736Z,102335.00
2023-04-18T21:45:02.873Z,102341.00
2023-04-18T21:47:29.733Z,102344.00
2023-04-18T21:49:56.507Z,102351.00
2023-04-18T21:52:23.218Z,102336.00
2023-04-18T21:54:49.949Z,102349.00
2023-04-18T21:57:16.700Z,102349.00
2023-04-18T21:59:43.690Z,102336.00
2023-04-18T22:02:10.496Z,102332.00
2023-04-18T22:04:38.048Z,102334.00
2023-04-18T22:07:06.574Z,102332.00
2023-04-18T22:09:36.239Z,102332.00
2023-04-18T22:12:04.293Z,102330.00
2023-04-18T22:14:34.209Z,102329.00
2023-04-18T22:17:04.860Z,102317.00
2023-04-18T22:19:31.724Z,102313.00
2023-04-18T22:21:58.756Z,102323.00
2023-04-18T22:24:26.588Z,102309.00
2023-04-18T22:26:53.618Z,102323.00
2023-04-18T22:29:20.343Z,102322.00
2023-04-18T22:31:47.105Z,102311.00
2023-04-18T22:34:14.172Z,102312.00
2023-04-18T22:36:42.674Z,102328.00
2023-04-18T22:39:09.617Z,102299.00
2023-04-18T22:41:36.485Z,102308.00
2023-04-18T22:44:03.400Z,102300.00
2023-04-18T22:46:30.435Z,102300.00
2023-04-18T22:48:57.663Z,102301.00
2023-04-18T22:51:24.480Z,102300.00
2023-04-18T22:53:51.216Z,102308.00
2023-04-18T22:56:17.927Z,102297.00
2023-04-18T22:58:44.628Z,102291.00
2023-04-18T23:01:11.516Z,102288.00
2023-04-18T23:03:38.395Z,102283.00
2023-04-18T23:06:07.882Z,102272.00
2023-04-18T23:08:34.626Z,102280.00
2023-04-18T23:11:01.383Z,102284.00
2023-04-18T23:13:28.233Z,102278.00
2023-04-18T23:15:55.048Z,102270.00
2023-04-18T23:18:21.805Z,102278.00
2023-04-18T23:20:48.525Z,102278.00
2023-04-18T23:23:15.296Z,102281.00
2023-04-18T23:25:42.153Z,102281.00
2023-04-18T23:28:09.449Z,102279.00
2023-04-18T23:30:37.679Z,102281.00
2023-04-18T23:33:04.534Z,102278.00
2023-04-18T23:35:31.340Z,102268.00
2023-04-18T23:37:58.800Z,102270.00
2023-04-18T23:40:25.635Z,102268.00
2023-04-18T23:42:52.409Z,102268.00
2023-04-18T23:45:19.317Z,102262.00
2023-04-18T23:47:46.122Z,102266.00
2023-04-18T23:50:12.955Z,102262.00
2023-04-18T23:52:40.519Z,102271.00
2023-04-18T23:55:07.802Z,102263.00
2023-04-18T23:57:35.057Z,102270.00
